Time;durP1;ratioP1;P1;durP2;ratioP2;P2;SDS_P1;SDS_P2;PMS_P1;PMS_P2;Temp;Humidity;BMP_temperature;BMP_pressure;BME280_temperature;BME280_humidity;BME280_pressure;Samples;Min_cycle;Max_cycle;Signal;HPM_P1;HPM_P2
2022/10/29 00:01:52;;;;;;;6.13;1.92;;;;;;;19.86;90.29;101260.94;4996960;28;20096;-71
2022/10/29 00:04:17;;;;;;;7.72;2.60;;;;;;;19.84;90.08;101270.72;5008272;28;20116;-71
2022/10/29 00:06:43;;;;;;;3.85;2.25;;;;;;;19.70;90.17;101263.41;4995941;28;20509;-71
2022/10/29 00:09:09;;;;;;;6.57;1.63;;;;;;;19.78;90.02;101264.91;5009327;28;20030;-71
2022/10/29 00:11:35;;;;;;;7.70;2.00;;;;;;;19.72;89.70;101266.53;5010249;28;20041;-71
2022/10/29 00:14:00;;;;;;;6.18;2.28;;;;;;;19.67;90.09;101262.25;5009393;28;20026;-70
2022/10/29 00:16:29;;;;;;;5.10;1.85;;;;;;;19.57;90.13;101271.28;5010429;28;20030;-71
2022/10/29 00:18:55;;;;;;;9.50;2.15;;;;;;;19.56;89.98;101275.22;5008961;28;20121;-71
2022/10/29 00:21:24;;;;;;;7.88;1.88;;;;;;;19.62;89.92;101268.16;5010932;28;20117;-71
2022/10/29 00:23:50;;;;;;;6.97;1.60;;;;;;;19.62;89.63;101270.88;5010120;28;20041;-71
2022/10/29 00:26:18;;;;;;;4.97;2.10;;;;;;;19.51;89.95;101274.88;5008910;28;20040;-71
2022/10/29 00:28:44;;;;;;;9.52;2.40;;;;;;;19.54;90.06;101280.31;5009319;28;20072;-71
2022/10/29 00:31:18;;;;;;;4.25;1.73;;;;;;;19.55;89.53;101279.13;5001428;28;20029;-71
2022/10/29 00:33:45;;;;;;;4.63;2.00;;;;;;;19.46;89.75;101281.53;5000312;28;20065;-71
2022/10/29 00:36:14;;;;;;;4.72;1.73;;;;;;;19.42;90.33;101279.97;5004615;28;20022;-71
2022/10/29 00:38:39;;;;;;;8.93;1.85;;;;;;;19.20;91.24;101284.72;4997741;28;20374;-71
2022/10/29 00:41:06;;;;;;;6.68;1.90;;;;;;;19.21;91.30;101294.50;5004621;28;20046;-70
2022/10/29 00:43:33;;;;;;;2.53;1.40;;;;;;;19.06;91.92;101287.56;5009058;28;20038;-71
2022/10/29 00:46:01;;;;;;;2.78;1.52;;;;;;;19.13;91.74;101298.44;5008660;28;20108;-71
2022/10/29 00:48:29;;;;;;;3.20;1.58;;;;;;;19.18;91.81;101300.75;5005235;28;20403;-71
2022/10/29 00:50:57;;;;;;;4.57;2.03;;;;;;;19.32;91.12;101305.34;4995618;28;20042;-70
2022/10/29 00:53:27;;;;;;;10.50;1.85;;;;;;;19.24;91.53;101307.34;4989886;28;20100;-70
2022/10/29 00:55:53;;;;;;;3.25;1.70;;;;;;;19.24;91.56;101312.81;4992754;28;20034;-69
2022/10/29 00:58:20;;;;;;;5.20;1.50;;;;;;;19.14;91.83;101316.38;4998161;28;20390;-70
2022/10/29 01:00:45;;;;;;;11.65;2.55;;;;;;;19.17;92.03;101315.59;4994710;28;20108;-69
2022/10/29 01:03:10;;;;;;;5.15;1.70;;;;;;;19.16;91.75;101313.25;4984117;28;20034;-70
2022/10/29 01:05:37;;;;;;;4.03;1.63;;;;;;;19.11;91.91;101314.44;4996768;28;20030;-69
2022/10/29 01:08:03;;;;;;;2.15;1.50;;;;;;;19.25;91.82;101321.78;5002836;28;20033;-70
2022/10/29 01:10:39;;;;;;;6.15;2.00;;;;;;;19.24;91.73;101321.00;4995515;28;20402;-70
2022/10/29 01:13:37;;;;;;;2.08;1.35;;;;;;;19.30;91.07;101322.16;5012207;28;20494;-69
2022/10/29 01:16:17;;;;;;;5.20;2.05;;;;;;;19.11;91.90;101322.63;5012538;28;20033;-70
2022/10/29 01:18:53;;;;;;;5.55;1.67;;;;;;;19.20;91.82;101322.97;5012458;28;20058;-70
2022/10/29 01:21:44;;;;;;;6.57;1.90;;;;;;;19.10;92.08;101315.63;4996974;28;20042;-69
2022/10/29 01:24:25;;;;;;;7.88;1.98;;;;;;;18.99;92.86;101325.78;4993202;28;20410;-69
2022/10/29 01:26:59;;;;;;;10.95;1.92;;;;;;;19.02;93.12;101325.00;5002536;28;20128;-69
2022/10/29 01:29:50;;;;;;;5.90;1.70;;;;;;;19.13;92.22;101328.47;5002465;28;20116;-69
2022/10/29 01:32:19;;;;;;;3.30;1.50;;;;;;;19.23;91.59;101333.13;4993003;28;20045;-69
2022/10/29 01:35:06;;;;;;;3.10;1.35;;;;;;;19.25;91.06;101327.25;5000631;28;20491;-69
2022/10/29 01:37:44;;;;;;;4.07;1.42;;;;;;;19.18;90.90;101333.50;5010267;28;20128;-69
2022/10/29 01:40:32;;;;;;;6.70;1.65;;;;;;;19.10;90.80;101331.22;5005558;28;20034;-69
2022/10/29 01:43:12;;;;;;;3.78;1.30;;;;;;;19.09;91.11;101338.63;5009953;28;20224;-68
2022/10/29 01:45:57;;;;;;;2.08;1.13;;;;;;;19.03;91.41;101342.19;5011988;28;20041;-69
2022/10/29 01:48:28;;;;;;;5.00;1.17;;;;;;;18.98;91.55;101346.09;5002496;28;20045;-69
2022/10/29 01:50:55;;;;;;;;;;;;;;;18.84;91.86;101346.13;5010850;28;20042;-69
2022/10/29 01:53:22;;;;;;;2.35;1.27;;;;;;;18.95;91.89;101343.38;4999815;28;19971;-69
2022/10/29 01:55:47;;;;;;;3.90;1.35;;;;;;;18.98;91.44;101340.63;4992827;28;20041;-69
2022/10/29 01:58:13;;;;;;;2.45;1.33;;;;;;;18.98;91.13;101351.53;5005775;28;20426;-69
2022/10/29 02:01:11;;;;;;;3.63;1.25;;;;;;;18.94;91.16;101342.59;5005182;28;20072;-69
2022/10/29 02:03:50;;;;;;;5.55;1.98;;;;;;;18.92;91.28;101351.19;4991021;28;20042;-68
2022/10/29 02:06:22;;;;;;;6.43;2.08;;;;;;;18.93;91.28;101347.25;5001405;28;20112;-68
2022/10/29 02:08:59;;;;;;;3.03;1.35;;;;;;;18.73;92.06;101345.38;5001962;28;20452;-69
2022/10/29 02:11:37;;;;;;;4.00;1.65;;;;;;;18.84;91.78;101357.81;5003832;28;20037;-70
2022/10/29 02:14:14;;;;;;;4.50;1.67;;;;;;;18.70;92.27;101354.31;4999103;28;20305;-69
2022/10/29 02:16:39;;;;;;;7.38;1.58;;;;;;;18.68;92.35;101353.94;5005154;28;20081;-69
2022/10/29 02:19:05;;;;;;;2.80;1.33;;;;;;;18.63;92.76;101351.59;5010953;28;20089;-69
2022/10/29 02:21:30;;;;;;;5.97;2.00;;;;;;;18.50;93.34;101340.34;5012218;28;20030;-69
2022/10/29 02:23:55;;;;;;;3.08;1.45;;;;;;;18.44;94.18;101346.56;5008458;28;20034;-71
2022/10/29 02:26:21;;;;;;;6.53;2.15;;;;;;;18.62;93.22;101355.53;5007994;28;20031;-69
2022/10/29 02:28:46;;;;;;;6.07;1.55;;;;;;;18.48;93.76;101350.06;5008618;28;20038;-69
2022/10/29 02:31:12;;;;;;;9.57;1.60;;;;;;;18.41;94.01;101350.03;5004234;28;20132;-69
2022/10/29 02:33:37;;;;;;;2.55;1.42;;;;;;;18.43;94.88;101339.53;4991624;28;20125;-69
2022/10/29 02:36:03;;;;;;;4.97;1.83;;;;;;;18.46;95.03;101345.00;5012357;28;20117;-68
2022/10/29 02:38:28;;;;;;;5.93;1.70;;;;;;;18.42;95.54;101340.69;5012810;28;20042;-68
2022/10/29 02:40:54;;;;;;;2.88;1.95;;;;;;;18.44;94.63;101343.84;5013254;28;20034;-70
2022/10/29 02:43:19;;;;;;;6.38;1.67;;;;;;;18.47;94.57;101337.59;5012227;28;20061;-69
2022/10/29 02:45:44;;;;;;;4.78;1.45;;;;;;;18.47;94.39;101338.38;5007279;28;20442;-69
2022/10/29 02:48:10;;;;;;;7.47;2.17;;;;;;;18.53;93.85;101338.75;5011122;28;20045;-68
2022/10/29 02:50:35;;;;;;;8.82;2.08;;;;;;;18.56;93.56;101335.25;5011585;28;20113;-68
2022/10/29 02:53:00;;;;;;;8.05;2.00;;;;;;;18.54;93.83;101334.88;5012334;28;20048;-69
2022/10/29 02:55:26;;;;;;;5.78;1.95;;;;;;;18.41;94.54;101329.00;5010450;28;20065;-68
2022/10/29 02:57:51;;;;;;;4.70;1.40;;;;;;;18.45;94.52;101313.44;5012943;28;20494;-69
2022/10/29 03:00:17;;;;;;;2.40;1.55;;;;;;;18.60;94.20;101325.88;5010551;28;20033;-69
2022/10/29 03:02:42;;;;;;;4.63;1.90;;;;;;;18.40;93.98;101327.44;5010404;28;20125;-69
2022/10/29 03:05:09;;;;;;;6.28;2.03;;;;;;;18.32;95.22;101325.88;5010874;28;20041;-68
2022/10/29 03:07:37;;;;;;;2.80;1.58;;;;;;;18.44;95.36;101327.47;5012583;28;20053;-69
2022/10/29 03:10:04;;;;;;;4.97;1.70;;;;;;;18.38;95.31;101332.50;5010856;28;20041;-70
2022/10/29 03:12:30;;;;;;;3.72;1.98;;;;;;;18.44;95.11;101338.38;5024256;28;20149;-68
2022/10/29 03:14:56;;;;;;;5.45;1.80;;;;;;;18.52;94.77;101329.03;5010968;28;20042;-68
2022/10/29 03:17:21;;;;;;;7.82;2.28;;;;;;;18.58;94.42;101327.47;5011637;28;20045;-69
2022/10/29 03:19:47;;;;;;;6.57;1.80;;;;;;;18.56;93.98;101335.25;5009832;28;20036;-71
2022/10/29 03:22:12;;;;;;;4.63;1.88;;;;;;;18.46;94.23;101336.84;5010084;28;20037;-68
2022/10/29 03:24:38;;;;;;;4.47;2.13;;;;;;;18.47;94.47;101340.31;5009498;28;20044;-69
2022/10/29 03:27:03;;;;;;;8.32;1.88;;;;;;;18.47;93.84;101335.66;5008662;28;20084;-68
2022/10/29 03:29:28;;;;;;;5.55;2.03;;;;;;;18.41;94.39;101339.13;5011912;28;20104;-68
2022/10/29 03:31:54;;;;;;;5.57;1.50;;;;;;;18.48;94.19;101347.34;5004928;28;20045;-68
2022/10/29 03:34:19;;;;;;;6.47;2.97;;;;;;;18.46;94.12;101341.50;5008785;28;20037;-68
2022/10/29 03:36:44;;;;;;;3.75;1.33;;;;;;;18.46;94.09;101352.41;4998772;28;20442;-69
2022/10/29 03:39:10;;;;;;;5.97;2.53;;;;;;;18.47;93.96;101354.75;5006057;28;20030;-69
2022/10/29 03:41:35;;;;;;;8.38;2.50;;;;;;;18.42;94.21;101346.97;5007267;28;20041;-69
2022/10/29 03:44:00;;;;;;;3.92;1.77;;;;;;;18.42;94.00;101355.16;5005279;28;20045;-69
2022/10/29 03:46:26;;;;;;;4.35;1.65;;;;;;;18.41;94.43;101339.13;5010157;28;20843;-69
2022/10/29 03:48:51;;;;;;;3.40;1.85;;;;;;;18.36;94.43;101326.66;5011061;28;20104;-69
2022/10/29 03:51:16;;;;;;;6.32;2.08;;;;;;;18.31;95.11;101329.00;5010231;28;20091;-68
2022/10/29 03:53:42;;;;;;;4.63;1.70;;;;;;;18.35;95.28;101337.97;5010188;28;20049;-69
2022/10/29 03:56:08;;;;;;;3.05;1.55;;;;;;;18.33;94.92;101340.31;5010674;28;20033;-69
2022/10/29 03:58:34;;;;;;;4.28;2.03;;;;;;;18.41;94.83;101350.03;5010337;28;20427;-68
2022/10/29 04:01:07;;;;;;;4.55;2.00;;;;;;;18.43;94.98;101345.78;5008463;28;20124;-69
2022/10/29 04:03:35;;;;;;;4.40;1.65;;;;;;;18.42;94.46;101346.97;5009867;28;20037;-69
2022/10/29 04:06:06;;;;;;;4.90;2.33;;;;;;;18.41;94.39;101333.66;5008526;28;20041;-69
2022/10/29 04:08:32;;;;;;;6.05;2.03;;;;;;;18.35;94.47;101332.53;5011764;28;20398;-68
2022/10/29 04:10:57;;;;;;;3.72;2.42;;;;;;;18.26;94.83;101338.34;5005993;28;20037;-68
2022/10/29 04:13:23;;;;;;;11.02;2.55;;;;;;;18.27;94.81;101334.47;5009315;28;20041;-69
2022/10/29 04:15:53;;;;;;;4.15;2.05;;;;;;;18.20;94.83;101336.41;5009379;28;20038;-68
2022/10/29 04:18:18;;;;;;;9.45;1.90;;;;;;;18.19;94.60;101332.91;5010293;28;20076;-68
2022/10/29 04:20:43;;;;;;;3.65;1.75;;;;;;;18.12;94.55;101315.78;5012750;28;20072;-68
2022/10/29 04:23:09;;;;;;;5.03;1.67;;;;;;;18.10;94.60;101327.03;5009242;28;20041;-69
2022/10/29 04:25:34;;;;;;;4.75;2.00;;;;;;;18.06;94.01;101320.81;5008778;28;20046;-69
2022/10/29 04:28:00;;;;;;;5.47;2.00;;;;;;;17.84;94.09;101320.03;5031186;22;20061;-67
2022/10/29 04:30:25;;;;;;;5.07;1.90;;;;;;;17.82;94.01;101321.56;5006565;28;20034;-66
2022/10/29 04:32:54;;;;;;;5.15;2.05;;;;;;;17.76;94.66;101321.19;5010955;28;20049;-66
2022/10/29 04:35:20;;;;;;;5.28;1.85;;;;;;;17.71;95.00;101327.00;5003409;28;20030;-66
2022/10/29 04:37:45;;;;;;;6.68;1.65;;;;;;;17.60;95.28;101333.59;4978577;28;20035;-66
2022/10/29 04:40:11;;;;;;;3.28;1.50;;;;;;;17.56;95.65;101341.75;4971840;28;20070;-66
2022/10/29 04:42:39;;;;;;;9.40;2.13;;;;;;;17.50;95.79;101353.44;4986171;28;20061;-66
2022/10/29 04:45:06;;;;;;;5.50;1.83;;;;;;;17.53;95.59;101347.97;4989650;28;20046;-66
2022/10/29 04:47:31;;;;;;;5.35;1.90;;;;;;;17.54;95.73;101344.06;4986659;28;20109;-66
2022/10/29 04:49:56;;;;;;;4.15;1.80;;;;;;;17.58;96.89;101352.25;4990055;28;20117;-67
2022/10/29 04:52:22;;;;;;;6.07;2.25;;;;;;;17.68;96.08;101349.56;4987109;28;20121;-66
2022/10/29 04:54:48;;;;;;;4.40;1.85;;;;;;;17.72;96.61;101353.09;4986997;28;20050;-66
2022/10/29 04:57:13;;;;;;;9.70;2.17;;;;;;;17.73;96.78;101351.91;4989755;28;20301;-66
2022/10/29 04:59:38;;;;;;;2.72;1.70;;;;;;;17.65;96.88;101347.59;4971739;28;20401;-66
2022/10/29 05:02:04;;;;;;;7.53;2.22;;;;;;;17.67;97.04;101345.28;4987617;28;20046;-66
2022/10/29 05:04:29;;;;;;;6.18;2.22;;;;;;;17.75;96.85;101335.97;4989523;28;20105;-66
2022/10/29 05:06:55;;;;;;;5.97;2.40;;;;;;;17.74;96.90;101339.06;4990286;28;20041;-66
2022/10/29 05:09:20;;;;;;;4.50;1.90;;;;;;;17.68;96.79;101332.44;4990148;28;20114;-66
2022/10/29 05:11:45;;;;;;;5.85;2.22;;;;;;;17.66;96.48;101332.84;4988147;28;20415;-67
2022/10/29 05:14:11;;;;;;;8.48;2.30;;;;;;;17.70;97.13;101355.41;5005236;28;20662;-66
2022/10/29 05:16:36;;;;;;;8.48;2.85;;;;;;;17.73;96.97;101359.34;4986984;28;20036;-66
2022/10/29 05:19:03;;;;;;;4.90;2.53;;;;;;;17.77;97.02;101357.38;4990018;28;20033;-66
2022/10/29 05:21:29;;;;;;;4.32;1.77;;;;;;;17.77;96.82;101369.06;4986786;28;20034;-66
2022/10/29 05:23:54;;;;;;;10.82;2.38;;;;;;;17.55;97.51;101364.72;4988901;28;20030;-66
2022/10/29 05:26:20;;;;;;;7.70;2.13;;;;;;;17.49;98.90;101360.81;4987686;28;20038;-67
2022/10/29 05:28:49;;;;;;;9.25;2.45;;;;;;;17.51;98.39;101355.75;4988552;28;20019;-66
2022/10/29 05:31:14;;;;;;;6.07;2.50;;;;;;;17.37;98.71;101363.84;4981904;28;20034;-66
2022/10/29 05:33:39;;;;;;;7.10;3.15;;;;;;;17.35;99.05;101370.81;4990243;28;20034;-66
2022/10/29 05:36:05;;;;;;;5.97;2.35;;;;;;;17.43;98.48;101375.94;4988742;28;20049;-66
2022/10/29 05:38:31;;;;;;;5.53;2.15;;;;;;;17.49;99.11;101381.81;4976532;28;20042;-66
2022/10/29 05:40:57;;;;;;;12.45;2.78;;;;;;;17.40;99.38;101370.47;4990377;28;20046;-66
2022/10/29 05:43:23;;;;;;;4.20;2.50;;;;;;;17.41;99.01;101366.56;4978994;28;20074;-66
2022/10/29 05:45:48;;;;;;;4.38;2.15;;;;;;;17.38;99.31;101359.19;4981690;28;20050;-67
2022/10/29 05:48:13;;;;;;;13.82;2.42;;;;;;;17.49;98.41;101349.91;4988478;28;20046;-66
2022/10/29 05:50:39;;;;;;;4.78;2.40;;;;;;;17.49;98.49;101349.91;4993140;28;20120;-66
2022/10/29 05:53:06;;;;;;;9.95;3.42;;;;;;;17.50;97.96;101353.44;4991883;28;20049;-66
2022/10/29 05:55:33;;;;;;;4.60;2.10;;;;;;;17.54;98.01;101344.06;5003409;28;20049;-66
2022/10/29 05:58:01;;;;;;;7.22;2.50;;;;;;;17.40;97.64;101346.72;4994279;28;20490;-66
2022/10/29 06:00:30;;;;;;;5.50;2.72;;;;;;;17.31;97.81;101370.81;4993738;28;20050;-66
2022/10/29 06:02:56;;;;;;;6.72;2.50;;;;;;;17.45;97.64;101376.31;4979454;28;20405;-66
2022/10/29 06:05:21;;;;;;;4.80;2.42;;;;;;;17.50;97.26;101362.34;4991763;28;20138;-66
2022/10/29 06:07:56;;;;;;;8.40;2.30;;;;;;;17.42;97.39;101368.16;4993862;28;20061;-66
2022/10/29 06:10:22;;;;;;;7.03;2.65;;;;;;;17.50;97.17;101367.03;4986326;28;20045;-66
2022/10/29 06:12:48;;;;;;;7.78;2.75;;;;;;;17.44;96.71;101374.75;4992699;28;20061;-66
2022/10/29 06:15:14;;;;;;;5.25;2.80;;;;;;;17.44;96.81;101380.19;4991962;28;20034;-66
2022/10/29 06:17:41;;;;;;;8.18;3.28;;;;;;;17.40;96.83;101373.19;4992887;28;20372;-66
2022/10/29 06:20:11;;;;;;;7.15;2.85;;;;;;;17.31;96.82;101365.38;4979162;28;20042;-66
2022/10/29 06:22:36;;;;;;;4.78;2.38;;;;;;;17.33;96.96;101359.53;4990566;28;20042;-66
2022/10/29 06:25:02;;;;;;;7.15;2.30;;;;;;;17.17;96.89;101356.38;4991080;28;20295;-66
2022/10/29 06:27:28;;;;;;;6.10;2.63;;;;;;;17.21;97.35;101366.09;4991548;28;20092;-66
2022/10/29 06:29:53;;;;;;;6.30;2.35;;;;;;;17.22;97.11;101362.22;4986547;28;20030;-66
2022/10/29 06:32:18;;;;;;;5.35;2.80;;;;;;;17.17;96.76;101365.28;4991302;28;20027;-66
2022/10/29 06:34:44;;;;;;;7.95;2.80;;;;;;;17.05;96.85;101371.09;4991087;28;20070;-66
2022/10/29 06:37:09;;;;;;;6.93;2.78;;;;;;;16.93;96.72;101376.84;5005022;28;20490;-66
2022/10/29 06:39:34;;;;;;;5.35;2.45;;;;;;;16.94;96.49;101367.50;4992628;28;20502;-66
2022/10/29 06:42:00;;;;;;;11.00;3.05;;;;;;;16.91;96.83;101371.78;4993294;28;20088;-66
2022/10/29 06:44:28;;;;;;;5.70;2.60;;;;;;;16.88;96.45;101377.97;4989275;28;20053;-66
2022/10/29 06:46:53;;;;;;;11.27;2.60;;;;;;;16.81;96.44;101386.09;5003984;28;20038;-66
2022/10/29 06:49:19;;;;;;;7.68;2.92;;;;;;;16.79;96.11;101377.53;4984006;28;20486;-66
2022/10/29 06:51:45;;;;;;;5.00;2.42;;;;;;;16.77;97.12;101384.50;4990378;28;20080;-66
2022/10/29 06:54:10;;;;;;;5.70;2.65;;;;;;;16.76;97.03;101380.22;4981338;28;20069;-66
2022/10/29 06:56:36;;;;;;;3.88;2.42;;;;;;;16.73;97.07;101379.03;4990439;28;20038;-66
2022/10/29 06:59:01;;;;;;;7.63;2.72;;;;;;;16.76;96.70;101378.25;4990561;28;20438;-66
2022/10/29 07:01:27;;;;;;;7.85;2.47;;;;;;;16.75;96.89;101365.03;4992591;28;20093;-66
2022/10/29 07:03:53;;;;;;;6.35;2.80;;;;;;;16.83;96.59;101383.78;4991703;28;20387;-66
2022/10/29 07:06:19;;;;;;;5.57;2.58;;;;;;;16.84;96.74;101400.88;5006518;28;20034;-66
2022/10/29 07:08:44;;;;;;;8.73;2.55;;;;;;;16.80;96.87;101394.63;4982864;28;20027;-67
2022/10/29 07:11:10;;;;;;;12.38;2.80;;;;;;;16.75;96.55;101403.91;4975230;28;20054;-67
2022/10/29 07:13:35;;;;;;;5.05;2.40;;;;;;;16.70;97.58;101409.72;4991749;28;20037;-66
2022/10/29 07:16:00;;;;;;;6.65;2.90;;;;;;;16.66;98.03;101406.19;4991554;28;20069;-67
2022/10/29 07:18:26;;;;;;;3.97;2.25;;;;;;;16.90;97.90;101402.84;4986258;28;20097;-67
2022/10/29 07:20:51;;;;;;;7.25;2.72;;;;;;;16.94;98.07;101411.03;4975879;28;20041;-67
2022/10/29 07:23:16;;;;;;;11.57;3.30;;;;;;;16.96;98.43;101428.56;4991008;28;20398;-67
2022/10/29 07:25:42;;;;;;;7.53;2.60;;;;;;;16.81;99.78;101424.19;4991829;28;20454;-67
2022/10/29 07:28:12;;;;;;;8.93;2.60;;;;;;;16.82;100.00;101422.25;4992024;28;20048;-67
2022/10/29 07:30:38;;;;;;;3.42;2.83;;;;;;;16.86;100.00;101421.09;4987206;28;20046;-66
2022/10/29 07:33:03;;;;;;;9.13;2.97;;;;;;;16.90;100.00;101421.13;5005892;28;20380;-66
2022/10/29 07:35:29;;;;;;;5.78;2.95;;;;;;;16.82;100.00;101423.00;4989356;28;20085;-66
2022/10/29 07:38:03;;;;;;;6.63;3.55;;;;;;;16.94;100.00;101430.09;4990263;28;20030;-66
2022/10/29 07:40:29;;;;;;;9.50;3.55;;;;;;;17.03;100.00;101431.31;4991749;28;20117;-66
2022/10/29 07:42:54;;;;;;;5.50;3.10;;;;;;;17.00;100.00;101431.31;4992451;28;20117;-66
2022/10/29 07:45:20;;;;;;;14.02;3.45;;;;;;;16.90;100.00;101421.13;4990266;28;20398;-66
2022/10/29 07:47:45;;;;;;;10.63;3.30;;;;;;;16.89;100.00;101414.91;4979208;28;20331;-67
2022/10/29 07:50:11;;;;;;;7.53;2.80;;;;;;;16.95;100.00;101426.22;4990247;28;20546;-66
2022/10/29 07:52:38;;;;;;;7.55;3.60;;;;;;;17.12;100.00;101428.28;4987685;28;20031;-67
2022/10/29 07:55:04;;;;;;;7.10;3.15;;;;;;;17.11;100.00;101438.38;4982505;28;20820;-67
2022/10/29 07:57:29;;;;;;;8.13;3.58;;;;;;;17.26;100.00;101443.91;4972908;28;20039;-66
2022/10/29 07:59:55;;;;;;;7.25;2.85;;;;;;;17.37;100.00;101444.75;4971959;28;20073;-66
2022/10/29 08:02:20;;;;;;;8.52;3.58;;;;;;;17.33;99.23;101447.47;4984661;28;20049;-67
2022/10/29 08:04:45;;;;;;;9.88;3.45;;;;;;;17.31;99.30;101449.00;4991386;28;20042;-66
2022/10/29 08:07:11;;;;;;;7.72;3.15;;;;;;;17.37;99.52;101450.97;4981912;28;20022;-67
2022/10/29 08:09:36;;;;;;;8.48;3.78;;;;;;;17.33;99.35;101454.84;4994931;28;20057;-66
2022/10/29 08:12:03;;;;;;;8.52;3.17;;;;;;;17.39;99.79;101454.09;4994734;28;20045;-66
2022/10/29 08:14:29;;;;;;;7.75;3.50;;;;;;;17.39;99.95;101459.56;4986984;28;20034;-66
2022/10/29 08:16:54;;;;;;;9.43;3.10;;;;;;;17.50;99.34;101459.66;4988365;28;20553;-66
2022/10/29 08:19:21;;;;;;;7.05;3.20;;;;;;;17.43;99.55;101446.75;4991309;28;20034;-66
2022/10/29 08:21:47;;;;;;;7.65;3.22;;;;;;;17.33;99.61;101449.38;4989530;28;20023;-66
2022/10/29 08:24:12;;;;;;;13.02;3.95;;;;;;;17.32;99.60;101443.19;4979820;28;20112;-66
2022/10/29 08:26:37;;;;;;;7.75;3.08;;;;;;;17.40;99.68;101436.59;5000211;28;20041;-66
2022/10/29 08:29:03;;;;;;;8.80;3.38;;;;;;;17.45;98.98;101433.53;4991772;28;20018;-66
2022/10/29 08:31:29;;;;;;;8.02;3.17;;;;;;;17.57;99.43;101435.16;4987853;28;20041;-66
2022/10/29 08:33:54;;;;;;;6.45;2.70;;;;;;;17.67;98.59;101434.44;4989539;28;20052;-67
2022/10/29 08:36:19;;;;;;;7.43;3.08;;;;;;;17.74;97.76;101426.28;4991014;28;20034;-66
2022/10/29 08:38:48;;;;;;;9.05;2.85;;;;;;;17.63;98.04;101422.72;4990250;28;20089;-66
2022/10/29 08:41:27;;;;;;;10.93;3.42;;;;;;;17.66;97.51;101420.03;4995499;28;20069;-67
2022/10/29 08:44:24;;;;;;;8.65;3.55;;;;;;;17.69;98.32;101413.78;4990374;28;20034;-66
2022/10/29 08:47:15;;;;;;;11.82;3.90;;;;;;;17.70;98.01;101407.19;4982251;28;20509;-66
2022/10/29 08:49:49;;;;;;;11.10;3.72;;;;;;;17.59;97.98;101398.22;4989044;28;20541;-66
2022/10/29 08:52:23;;;;;;;14.00;4.70;;;;;;;17.66;98.42;101406.41;4988226;28;20038;-67
2022/10/29 08:55:39;;;;;;;11.63;3.85;;;;;;;17.74;97.81;101415.38;4978299;28;20507;-66
2022/10/29 08:58:18;;;;;;;12.20;4.07;;;;;;;17.69;97.60;101402.88;4977424;28;21405;-66
2022/10/29 09:00:47;;;;;;;11.70;4.18;;;;;;;17.70;97.88;101390.06;4991699;28;20042;-66
2022/10/29 09:03:13;;;;;;;9.93;3.97;;;;;;;17.66;97.56;101381.88;4990356;28;20042;-66
2022/10/29 09:05:55;;;;;;;14.43;3.75;;;;;;;17.70;97.63;101374.50;5004877;28;20130;-66
2022/10/29 09:08:36;;;;;;;12.75;4.43;;;;;;;17.60;98.24;101382.63;4988510;28;20387;-66
2022/10/29 09:11:26;;;;;;;11.05;3.75;;;;;;;17.71;98.20;101388.91;4987011;28;20439;-66
2022/10/29 09:14:14;;;;;;;17.10;4.68;;;;;;;17.66;98.92;101402.88;4988725;28;20042;-66
2022/10/29 09:16:51;;;;;;;13.65;4.95;;;;;;;17.68;99.22;101412.25;4985561;28;20072;-66
2022/10/29 09:19:39;;;;;;;13.88;4.35;;;;;;;17.71;99.23;101422.38;4987882;28;20037;-66
2022/10/29 09:22:29;;;;;;;16.00;5.28;;;;;;;17.77;98.64;101420.81;4992145;28;20121;-66
2022/10/29 09:25:25;;;;;;;11.93;4.37;;;;;;;17.84;98.61;101406.47;4988011;28;20030;-66
2022/10/29 09:28:05;;;;;;;12.82;4.55;;;;;;;17.83;98.40;101402.94;4992690;28;20133;-66
2022/10/29 09:30:41;;;;;;;13.65;4.68;;;;;;;17.89;97.90;101404.13;4992848;28;20039;-66
2022/10/29 09:33:15;;;;;;;16.75;4.43;;;;;;;17.87;98.73;101398.28;4985756;28;20046;-66
2022/10/29 09:35:45;;;;;;;19.52;5.38;;;;;;;17.79;99.25;101404.88;4990893;28;20046;-66
2022/10/29 09:38:21;;;;;;;13.00;5.10;;;;;;;17.91;98.96;101406.47;5009945;28;20038;-66
2022/10/29 09:40:47;;;;;;;11.13;4.75;;;;;;;17.97;99.59;101413.88;4992828;28;20041;-66
2022/10/29 09:43:34;;;;;;;15.00;4.65;;;;;;;18.02;98.60;101413.50;4990185;28;20039;-66
2022/10/29 09:46:43;;;;;;;17.25;5.18;;;;;;;18.13;98.22;101421.72;4993104;28;20482;-66
2022/10/29 09:49:23;;;;;;;12.20;4.20;;;;;;;18.08;97.85;101408.44;4979107;28;20093;-66
2022/10/29 09:52:13;;;;;;;14.43;4.22;;;;;;;18.13;98.12;101407.28;4990505;28;20038;-66
2022/10/29 09:54:39;;;;;;;13.10;4.70;;;;;;;18.12;98.41;101406.50;4988918;28;20440;-66
2022/10/29 09:57:06;;;;;;;13.05;4.60;;;;;;;18.03;99.17;101387.03;4992486;28;20042;-66
2022/10/29 09:59:39;;;;;;;11.75;4.43;;;;;;;18.16;97.63;101382.75;4997909;28;20023;-66
2022/10/29 10:02:50;;;;;;;10.98;4.25;;;;;;;18.20;97.92;101360.94;4995906;28;20446;-66
2022/10/29 10:05:27;;;;;;;15.20;4.32;;;;;;;18.31;97.42;101367.19;4973723;28;20077;-66
2022/10/29 10:08:18;;;;;;;16.42;4.93;;;;;;;18.42;97.11;101363.34;4991182;28;20040;-66
2022/10/29 10:10:59;;;;;;;12.18;4.25;;;;;;;18.42;96.84;101368.78;4986966;28;20410;-66
2022/10/29 10:13:37;;;;;;;13.73;4.35;;;;;;;18.31;96.30;101372.66;4991002;28;20038;-66
2022/10/29 10:16:04;;;;;;;14.95;5.10;;;;;;;18.23;96.78;101376.53;4957106;28;20054;-67
2022/10/29 10:18:30;;;;;;;13.73;4.22;;;;;;;18.24;96.73;101367.19;4991953;28;20101;-66
2022/10/29 10:21:00;;;;;;;10.70;4.25;;;;;;;18.16;97.63;101354.69;4986065;28;20752;-66
2022/10/29 10:23:29;;;;;;;10.23;4.20;;;;;;;18.04;98.81;101375.72;4995356;28;20487;-66
2022/10/29 10:25:58;;;;;;;14.27;4.43;;;;;;;18.10;98.75;101373.41;5011341;28;20053;-66
2022/10/29 10:28:28;;;;;;;14.77;4.90;;;;;;;18.08;99.56;101373.00;4995639;22;20066;-69
2022/10/29 10:31:02;;;;;;;15.70;4.30;;;;;;;18.29;98.64;101370.28;4992492;28;20487;-69
2022/10/29 10:33:28;;;;;;;10.82;4.40;;;;;;;18.39;97.86;101377.69;4986852;28;20098;-69
2022/10/29 10:35:54;;;;;;;13.40;4.30;;;;;;;18.46;97.51;101390.59;4973110;28;20027;-68
2022/10/29 10:38:20;;;;;;;13.48;4.18;;;;;;;18.50;97.45;101375.03;4952750;28;20035;-69
2022/10/29 10:40:55;;;;;;;14.88;4.82;;;;;;;18.67;97.18;101379.69;4947228;28;20046;-70
2022/10/29 10:43:23;;;;;;;14.80;4.72;;;;;;;18.54;96.82;101368.38;4948770;28;20043;-69
2022/10/29 10:45:58;;;;;;;12.77;4.55;;;;;;;18.59;96.86;101367.19;4943461;28;20023;-70
2022/10/29 10:48:26;;;;;;;11.45;4.18;;;;;;;18.51;97.20;101365.66;4950757;28;20042;-70
2022/10/29 10:51:09;;;;;;;11.48;3.85;;;;;;;18.59;97.16;101368.00;4945723;28;20039;-70
2022/10/29 10:53:34;;;;;;;11.65;4.07;;;;;;;18.62;97.13;101364.47;4952859;28;20042;-68
2022/10/29 10:56:00;;;;;;;14.48;5.63;;;;;;;18.68;96.61;101370.31;4950395;28;20039;-70
2022/10/29 10:58:37;;;;;;;14.30;4.57;;;;;;;18.73;96.64;101367.19;4949148;28;20042;-69
2022/10/29 11:01:09;;;;;;;12.20;4.50;;;;;;;18.84;96.36;101357.03;4954313;28;20043;-70
2022/10/29 11:03:45;;;;;;;14.15;4.45;;;;;;;18.88;96.38;101350.41;4953611;28;20031;-69
2022/10/29 11:06:34;;;;;;;14.38;4.50;;;;;;;19.01;95.83;101358.94;4948547;28;20039;-70
2022/10/29 11:09:24;;;;;;;12.88;4.00;;;;;;;19.13;95.85;101353.06;4948301;28;20069;-69
2022/10/29 11:11:59;;;;;;;11.15;3.58;;;;;;;19.20;95.57;101353.03;4952824;28;20039;-69
2022/10/29 11:14:33;;;;;;;10.27;4.03;;;;;;;19.26;95.15;101345.97;4934581;28;20043;-69
2022/10/29 11:17:01;;;;;;;13.50;4.00;;;;;;;19.31;95.11;101356.50;4947251;28;20043;-69
2022/10/29 11:19:32;;;;;;;13.88;4.55;;;;;;;19.35;94.39;101356.53;4945682;28;20039;-69
2022/10/29 11:22:05;;;;;;;13.25;4.47;;;;;;;19.33;94.64;101351.47;4941594;28;20039;-68
2022/10/29 11:24:49;;;;;;;14.55;4.55;;;;;;;19.43;94.50;101347.13;4941206;28;20171;-68
2022/10/29 11:27:25;;;;;;;11.43;4.28;;;;;;;19.46;94.13;101344.38;4949960;28;20038;-70
2022/10/29 11:30:01;;;;;;;8.70;3.90;;;;;;;19.43;94.62;101333.47;4948256;29;20483;-71
2022/10/29 11:32:44;;;;;;;16.35;4.63;;;;;;;19.47;94.07;101331.50;4945136;28;20027;-70
2022/10/29 11:35:13;;;;;;;12.88;4.03;;;;;;;19.49;94.20;101327.16;4945492;28;20081;-70